Time;durP1;ratioP1;P1;durP2;ratioP2;P2;SDS_P1;SDS_P2;PMS_P1;PMS_P2;Temp;Humidity;BMP_temperature;BMP_pressure;BME280_temperature;BME280_humidity;BME280_pressure;Samples;Min_cycle;Max_cycle;Signal;HPM_P1;HPM_P2
2023/06/02 00:01:03;;;;;;;3.67;2.83;;;23.20;41.90;23.60;101178.00;;;;5013873;28;20215;-50
2023/06/02 00:03:31;;;;;;;3.10;2.80;;;23.20;41.80;23.60;101167.00;;;;5020822;28;20183;-51
2023/06/02 00:06:01;;;;;;;3.27;2.67;;;23.10;41.60;23.60;101180.00;;;;5013514;28;20179;-51
2023/06/02 00:08:27;;;;;;;3.80;2.87;;;23.10;41.70;23.60;101173.00;;;;5004440;28;20200;-51
2023/06/02 00:10:53;;;;;;;4.17;2.73;;;23.10;41.80;23.50;101176.00;;;;5012445;28;20662;-51
2023/06/02 00:13:19;;;;;;;2.77;2.57;;;23.00;41.70;23.50;101184.00;;;;5011058;28;20187;-51
2023/06/02 00:15:45;;;;;;;3.90;2.90;;;23.00;41.70;23.50;101181.00;;;;5011763;28;20175;-51
2023/06/02 00:18:11;;;;;;;2.93;2.60;;;23.00;41.70;23.50;101171.00;;;;5011289;28;20255;-51
2023/06/02 00:20:37;;;;;;;4.17;3.00;;;23.00;41.70;23.40;101174.00;;;;5012871;28;20223;-51
2023/06/02 00:23:03;;;;;;;3.10;2.80;;;23.00;41.50;23.40;101173.00;;;;5012929;28;20267;-51
2023/06/02 00:25:30;;;;;;;3.27;2.90;;;23.00;41.50;23.40;101169.00;;;;5012419;28;20241;-51
2023/06/02 00:27:55;;;;;;;3.30;2.70;;;22.90;41.60;23.40;101180.00;;;;5012425;28;20183;-51
2023/06/02 00:30:21;;;;;;;3.43;2.90;;;22.90;41.70;23.30;101120.00;;;;5012162;28;20192;-51
2023/06/02 00:32:47;;;;;;;3.47;2.70;;;22.90;41.70;23.30;101178.00;;;;5012532;28;20211;-51
2023/06/02 00:35:13;;;;;;;4.20;2.80;;;22.90;41.70;23.30;101177.00;;;;5011843;28;20199;-51
2023/06/02 00:37:38;;;;;;;3.37;2.87;;;22.90;41.50;23.30;101175.00;;;;5012100;28;20237;-51
2023/06/02 00:40:05;;;;;;;3.53;2.70;;;22.80;41.60;23.30;101171.00;;;;5012587;28;20199;-51
2023/06/02 00:42:31;;;;;;;3.47;2.53;;;22.80;41.60;23.30;101177.00;;;;5012607;28;20466;-51
2023/06/02 00:44:57;;;;;;;3.63;2.60;;;22.80;41.70;23.20;101177.00;;;;5010606;28;20203;-51
2023/06/02 00:47:22;;;;;;;3.43;2.60;;;22.80;41.70;23.20;101182.00;;;;5010894;28;20171;-51
2023/06/02 00:49:48;;;;;;;3.27;2.60;;;22.80;41.80;23.20;101177.00;;;;5011076;28;20211;-50
2023/06/02 00:52:14;;;;;;;4.13;2.50;;;22.80;41.80;23.20;101178.00;;;;5010401;28;20656;-50
2023/06/02 00:54:40;;;;;;;3.13;2.50;;;22.80;41.80;23.20;101174.00;;;;5009901;28;20206;-50
2023/06/02 00:57:07;;;;;;;2.50;2.30;;;22.70;41.90;23.20;101170.00;;;;5010845;28;20200;-52
2023/06/02 00:59:33;;;;;;;3.10;2.80;;;22.70;41.80;23.10;101182.00;;;;5010998;28;20612;-50
2023/06/02 01:01:59;;;;;;;2.83;2.57;;;22.70;41.90;23.10;101163.00;;;;4993345;28;20210;-51
2023/06/02 01:04:25;;;;;;;5.43;2.80;;;22.70;41.60;23.10;101165.00;;;;5008986;28;20195;-51
2023/06/02 01:06:51;;;;;;;3.80;2.83;;;22.70;41.30;23.10;101184.00;;;;5010526;28;20697;-51
2023/06/02 01:09:16;;;;;;;3.30;2.73;;;22.70;41.30;23.00;101175.00;;;;5009109;28;20254;-51
2023/06/02 01:11:43;;;;;;;3.73;2.73;;;22.60;41.40;23.00;101174.00;;;;4993111;28;20203;-51
2023/06/02 01:14:10;;;;;;;5.23;2.80;;;22.60;41.30;23.00;101183.00;;;;4993089;28;20183;-51
2023/06/02 01:16:35;;;;;;;3.30;2.80;;;22.60;41.10;22.90;101180.00;;;;5010713;28;20176;-50
2023/06/02 01:19:01;;;;;;;3.93;2.90;;;22.50;40.80;22.90;101182.00;;;;5010492;28;20214;-51
2023/06/02 01:21:30;;;;;;;2.87;2.47;;;22.50;40.90;22.80;101177.00;;;;5011193;28;20175;-51
2023/06/02 01:23:57;;;;;;;4.13;2.73;;;22.50;41.10;22.80;101174.00;;;;5009954;28;20761;-50
2023/06/02 01:26:23;;;;;;;2.63;2.40;;;22.40;41.10;22.80;101171.00;;;;5010438;28;20531;-51
2023/06/02 01:28:49;;;;;;;3.13;2.57;;;22.40;41.20;22.80;101174.00;;;;5010255;28;20195;-51
2023/06/02 01:31:23;;;;;;;3.57;2.70;;;22.40;41.40;22.80;101033.00;;;;5010211;28;20202;-51
2023/06/02 01:33:58;;;;;;;3.13;2.60;;;22.50;41.60;22.80;101165.00;;;;4982462;28;20182;-50
2023/06/02 01:36:23;;;;;;;3.93;2.87;;;22.40;41.50;22.70;101156.00;;;;5009223;28;20502;-51
2023/06/02 01:38:49;;;;;;;3.10;2.70;;;22.40;41.40;22.80;101154.00;;;;5009316;28;20267;-51
2023/06/02 01:41:15;;;;;;;4.07;2.93;;;22.40;41.40;22.70;101147.00;;;;4992711;28;20178;-50
2023/06/02 01:43:41;;;;;;;3.47;2.80;;;22.40;41.20;22.70;101164.00;;;;4992537;28;20225;-50
2023/06/02 01:46:07;;;;;;;3.47;2.60;;;22.40;41.20;22.70;101158.00;;;;4977914;28;20205;-51
2023/06/02 01:48:32;;;;;;;4.10;2.60;;;22.40;41.20;22.70;101163.00;;;;5013630;28;20219;-50
2023/06/02 01:50:58;;;;;;;3.80;2.83;;;22.30;41.20;22.70;101174.00;;;;5006480;28;20207;-51
2023/06/02 01:53:26;;;;;;;4.23;2.80;;;22.30;41.20;22.70;101163.00;;;;5009978;28;20615;-51
2023/06/02 01:55:53;;;;;;;4.80;3.13;;;22.30;41.30;22.60;101168.00;;;;5009645;28;20180;-51
2023/06/02 01:58:19;;;;;;;3.73;2.90;;;22.30;41.10;22.60;101161.00;;;;5009628;28;20180;-51
2023/06/02 02:00:45;;;;;;;5.37;3.00;;;22.20;41.20;22.60;101162.00;;;;5012147;28;20688;-50
2023/06/02 02:03:12;;;;;;;4.53;2.60;;;22.20;41.30;22.60;101164.00;;;;5016198;28;20373;-51
2023/06/02 02:05:38;;;;;;;3.53;2.63;;;22.20;41.40;22.60;101167.00;;;;5008358;28;20212;-51
2023/06/02 02:08:04;;;;;;;3.40;2.87;;;22.20;41.30;22.50;101164.00;;;;5009576;28;20179;-51
2023/06/02 02:10:30;;;;;;;3.23;2.90;;;22.20;41.30;22.50;101170.00;;;;5010243;28;20191;-50
2023/06/02 02:12:56;;;;;;;3.77;2.50;;;22.20;41.30;22.50;101160.00;;;;5009940;28;20195;-50
2023/06/02 02:15:22;;;;;;;3.33;2.73;;;22.20;41.40;22.50;101168.00;;;;5008641;28;20731;-51
2023/06/02 02:17:49;;;;;;;4.87;3.00;;;22.20;41.40;22.50;101169.00;;;;5010275;28;20218;-51
2023/06/02 02:20:18;;;;;;;4.43;3.10;;;22.10;41.30;22.50;101172.00;;;;5010027;28;20689;-50
2023/06/02 02:22:45;;;;;;;4.03;2.90;;;22.10;41.10;22.40;101164.00;;;;5010811;28;20263;-50
2023/06/02 02:25:11;;;;;;;4.30;2.87;;;22.10;41.20;22.40;101170.00;;;;5011196;28;20178;-50
2023/06/02 02:27:36;;;;;;;3.27;2.70;;;22.10;41.10;22.40;101171.00;;;;5010716;28;20168;-50
2023/06/02 02:30:03;;;;;;;3.47;2.73;;;22.10;41.20;22.40;101168.00;;;;5010556;28;20237;-49
2023/06/02 02:32:34;;;;;;;3.67;2.70;;;22.10;41.20;22.40;101175.00;;;;5010724;28;20266;-50
2023/06/02 02:35:00;;;;;;;3.47;2.67;;;22.10;41.20;22.40;101116.00;;;;5009283;28;20176;-49
2023/06/02 02:37:27;;;;;;;4.07;2.80;;;22.00;41.20;22.30;101183.00;;;;5010385;28;20671;-50
2023/06/02 02:39:53;;;;;;;3.07;2.77;;;22.00;41.30;22.30;101187.00;;;;5010252;28;20203;-51
2023/06/02 02:42:18;;;;;;;3.83;3.00;;;22.00;41.20;22.30;101152.00;;;;5010496;28;20194;-50
2023/06/02 02:44:45;;;;;;;3.30;2.80;;;22.00;41.20;22.30;101180.00;;;;5010902;28;20266;-50
2023/06/02 02:47:10;;;;;;;4.23;2.90;;;21.90;41.10;22.30;101189.00;;;;5010654;28;20259;-50
2023/06/02 02:49:36;;;;;;;5.37;3.43;;;22.00;41.10;22.20;101193.00;;;;5010539;28;20332;-52
2023/06/02 02:52:02;;;;;;;4.63;3.23;;;21.90;40.90;22.20;101186.00;;;;5008824;28;20183;-50
2023/06/02 02:54:27;;;;;;;6.50;3.00;;;21.90;40.80;22.20;101188.00;;;;5009116;28;20179;-49
2023/06/02 02:56:53;;;;;;;4.63;2.80;;;21.80;40.80;22.10;101182.00;;;;5009827;28;20194;-51
2023/06/02 02:59:19;;;;;;;4.73;3.03;;;21.90;40.90;22.10;101196.00;;;;5009883;28;20690;-51
2023/06/02 03:01:46;;;;;;;4.47;3.10;;;21.80;40.80;22.10;101194.00;;;;5009767;28;20182;-51
2023/06/02 03:04:18;;;;;;;4.40;2.93;;;21.80;40.80;22.10;101195.00;;;;5009671;28;20198;-51
2023/06/02 03:06:45;;;;;;;3.50;2.90;;;21.80;40.80;22.10;101191.00;;;;5008162;28;20262;-52
2023/06/02 03:09:12;;;;;;;5.17;3.53;;;21.70;40.90;22.10;101191.00;;;;4992132;28;20202;-50
2023/06/02 03:11:37;;;;;;;4.47;3.00;;;21.70;40.80;22.00;101195.00;;;;5006238;28;20193;-50
2023/06/02 03:14:03;;;;;;;5.13;3.07;;;21.80;40.80;22.00;101198.00;;;;5005892;28;20175;-50
2023/06/02 03:16:29;;;;;;;6.57;3.60;;;21.70;40.80;21.80;101197.00;;;;5009588;28;20180;-50
2023/06/02 03:18:56;;;;;;;6.30;4.07;;;21.70;40.70;22.00;101204.00;;;;5008111;28;20267;-50
2023/06/02 03:21:22;;;;;;;4.20;3.50;;;21.70;40.50;21.90;101209.00;;;;5008085;28;20580;-51
2023/06/02 03:23:51;;;;;;;3.80;3.30;;;21.70;40.60;21.90;101192.00;;;;5009257;28;20270;-50
2023/06/02 03:26:17;;;;;;;5.37;3.70;;;21.60;40.30;21.90;101211.00;;;;4992145;28;20183;-49
2023/06/02 03:28:43;;;;;;;7.20;3.50;;;21.60;40.40;21.90;101210.00;;;;5008171;28;20681;-50
2023/06/02 03:31:09;;;;;;;4.57;2.93;;;21.60;40.70;21.90;101210.00;;;;5008400;28;20171;-49
2023/06/02 03:33:35;;;;;;;7.90;3.57;;;21.60;41.10;21.90;101207.00;;;;5008955;28;20175;-49
2023/06/02 03:36:01;;;;;;;5.33;3.20;;;21.50;41.20;21.70;101209.00;;;;5009020;28;20164;-49
2023/06/02 03:38:27;;;;;;;3.50;3.00;;;21.50;41.30;21.90;101209.00;;;;5009132;28;20508;-50
2023/06/02 03:40:53;;;;;;;7.20;4.60;;;21.50;41.20;21.90;101211.00;;;;5009064;28;20633;-50
2023/06/02 03:43:18;;;;;;;5.80;3.90;;;21.60;41.50;21.80;101202.00;;;;5007801;28;20290;-49
2023/06/02 03:45:45;;;;;;;5.40;3.60;;;21.60;41.40;21.80;101211.00;;;;5009524;28;20210;-49
2023/06/02 03:48:11;;;;;;;4.93;3.70;;;21.50;41.30;21.80;101201.00;;;;5020426;28;20848;-49
2023/06/02 03:50:38;;;;;;;5.07;3.50;;;21.50;41.40;21.80;101212.00;;;;5012204;28;20218;-50
2023/06/02 03:53:05;;;;;;;5.23;3.40;;;21.50;41.40;21.80;101202.00;;;;5009246;28;20177;-49
2023/06/02 03:55:31;;;;;;;7.77;3.70;;;21.50;41.50;21.80;101210.00;;;;5010794;28;20168;-49
2023/06/02 03:57:56;;;;;;;4.57;3.60;;;21.50;41.40;21.80;101217.00;;;;5009612;28;20182;-49
2023/06/02 04:00:22;;;;;;;6.03;3.27;;;21.40;41.10;21.70;101212.00;;;;5017660;28;20212;-49
2023/06/02 04:02:48;;;;;;;5.40;3.07;;;21.50;40.90;21.70;101223.00;;;;5013519;28;20175;-49
2023/06/02 04:05:14;;;;;;;5.73;3.10;;;21.40;41.10;21.70;101213.00;;;;5010811;28;20175;-49
2023/06/02 04:07:41;;;;;;;7.30;3.43;;;21.40;41.00;21.70;101224.00;;;;5008657;28;20718;-50
2023/06/02 04:10:07;;;;;;;6.27;3.30;;;21.40;41.00;21.60;101232.00;;;;5009640;28;20556;-50
2023/06/02 04:12:32;;;;;;;6.17;3.30;;;21.40;40.70;21.60;101233.00;;;;5009805;28;20175;-50
2023/06/02 04:15:00;;;;;;;6.20;3.37;;;21.30;40.80;21.60;101244.00;;;;5008861;28;20238;-50
2023/06/02 04:17:26;;;;;;;4.80;3.20;;;21.40;40.90;21.60;101234.00;;;;5010139;28;20184;-50
2023/06/02 04:19:52;;;;;;;7.50;3.53;;;21.30;40.60;21.60;101237.00;;;;5009579;28;20213;-50
2023/06/02 04:22:19;;;;;;;6.77;3.20;;;21.30;40.50;21.50;101242.00;;;;5009268;28;20234;-50
2023/06/02 04:24:45;;;;;;;5.57;3.13;;;21.30;40.50;21.50;101245.00;;;;5009139;28;20182;-50
2023/06/02 04:27:11;;;;;;;8.33;3.40;;;21.30;40.60;21.50;101249.00;;;;5012593;28;20185;-50
2023/06/02 04:29:37;;;;;;;5.43;3.40;;;21.30;40.90;21.50;101244.00;;;;5012583;28;20735;-50
2023/06/02 04:32:04;;;;;;;4.30;3.23;;;21.20;40.70;21.50;101253.00;;;;5013047;28;20186;-50
2023/06/02 04:34:31;;;;;;;6.07;3.57;;;21.20;40.70;21.50;101247.00;;;;5012030;28;20169;-50
2023/06/02 04:36:58;;;;;;;5.43;3.60;;;21.20;40.70;21.50;101227.00;;;;5013095;28;20199;-50
2023/06/02 04:39:23;;;;;;;5.90;3.10;;;21.20;40.60;21.50;101245.00;;;;5011623;28;20823;-50
2023/06/02 04:41:49;;;;;;;4.37;3.43;;;21.20;40.50;21.40;101268.00;;;;5013110;28;20189;-50
2023/06/02 04:44:18;;;;;;;4.70;3.30;;;21.20;40.60;21.40;101250.00;;;;5013334;28;20673;-50
2023/06/02 04:46:44;;;;;;;7.17;3.17;;;21.10;40.50;21.40;101247.00;;;;5013528;28;20190;-51
2023/06/02 04:49:10;;;;;;;4.63;3.30;;;21.10;41.90;21.30;101242.00;;;;5008585;28;20211;-49
2023/06/02 04:51:37;;;;;;;5.07;3.37;;;21.10;40.90;21.30;101238.00;;;;5011701;28;20636;-49
2023/06/02 04:54:03;;;;;;;7.33;3.10;;;21.10;40.90;21.40;101249.00;;;;5010731;28;20175;-49
2023/06/02 04:56:30;;;;;;;4.90;3.20;;;21.10;41.00;21.40;101245.00;;;;5018241;28;20199;-51
2023/06/02 04:58:56;;;;;;;5.63;3.03;;;21.10;41.20;21.30;101250.00;;;;5012458;28;20663;-50
2023/06/02 05:01:22;;;;;;;7.03;3.10;;;21.10;41.30;21.30;101251.00;;;;5013014;28;20197;-51
2023/06/02 05:03:47;;;;;;;5.30;3.13;;;21.00;41.20;21.30;101248.00;;;;5012904;28;20179;-49
2023/06/02 05:06:13;;;;;;;5.00;2.90;;;21.10;41.40;21.30;101243.00;;;;5012064;28;20186;-50
2023/06/02 05:08:39;;;;;;;4.50;2.80;;;21.10;41.40;21.30;101255.00;;;;5015919;28;20222;-50
2023/06/02 05:11:05;;;;;;;4.10;2.77;;;21.00;41.40;21.30;101250.00;;;;5012635;28;20570;-50
2023/06/02 05:13:31;;;;;;;6.43;2.83;;;21.10;41.60;21.30;101246.00;;;;5013216;28;20187;-50
2023/06/02 05:15:57;;;;;;;5.07;2.70;;;21.10;41.70;21.30;101248.00;;;;5012111;28;20560;-49
2023/06/02 05:18:23;;;;;;;5.30;3.00;;;21.00;41.80;21.30;101248.00;;;;5011872;28;20194;-51
2023/06/02 05:20:51;;;;;;;4.50;2.80;;;21.00;41.90;21.30;101246.00;;;;5012136;28;20239;-51
2023/06/02 05:23:17;;;;;;;3.67;2.63;;;21.00;42.00;21.30;101247.00;;;;5012016;28;20201;-51
2023/06/02 05:25:42;;;;;;;4.27;2.60;;;21.00;42.10;21.30;101245.00;;;;5013416;28;20258;-50
2023/06/02 05:28:08;;;;;;;3.53;2.57;;;21.00;42.10;21.30;101252.00;;;;5011987;28;20296;-50
2023/06/02 05:30:35;;;;;;;4.53;2.60;;;20.90;42.10;21.30;101247.00;;;;5012098;28;20204;-50
2023/06/02 05:33:01;;;;;;;5.07;2.90;;;21.00;42.30;21.30;101254.00;;;;5012880;28;20180;-50
2023/06/02 05:35:26;;;;;;;3.97;2.60;;;20.90;42.40;21.30;101251.00;;;;5012306;28;20658;-50
2023/06/02 05:37:52;;;;;;;5.27;2.80;;;21.00;42.40;21.20;101242.00;;;;5011755;28;20186;-51
2023/06/02 05:40:18;;;;;;;3.90;2.70;;;20.90;42.50;21.20;101247.00;;;;5012305;28;20718;-50
2023/06/02 05:42:43;;;;;;;3.30;2.70;;;20.90;42.50;21.20;101250.00;;;;5013589;28;20214;-50
2023/06/02 05:45:10;;;;;;;3.50;2.50;;;20.90;42.60;21.20;101254.00;;;;5022026;28;20614;-50
2023/06/02 05:47:35;;;;;;;3.90;2.60;;;20.90;42.60;21.20;101254.00;;;;5016349;28;20260;-51
2023/06/02 05:50:01;;;;;;;3.03;2.47;;;20.90;42.70;21.20;101256.00;;;;5014336;28;20819;-50
2023/06/02 05:52:27;;;;;;;4.77;2.87;;;20.90;42.80;21.20;101258.00;;;;5011234;28;20182;-51
2023/06/02 05:54:53;;;;;;;3.20;2.70;;;20.90;42.80;21.20;101253.00;;;;5010850;28;20183;-51
2023/06/02 05:57:18;;;;;;;3.17;2.50;;;20.90;42.80;21.10;101256.00;;;;5014415;28;20177;-51
2023/06/02 05:59:45;;;;;;;3.93;2.43;;;20.80;42.80;21.10;101264.00;;;;5017885;28;20239;-51
2023/06/02 06:02:11;;;;;;;3.80;2.70;;;20.80;42.90;21.10;101262.00;;;;5011084;28;20226;-49
2023/06/02 06:04:37;;;;;;;3.70;2.33;;;20.80;42.90;21.10;101263.00;;;;5010794;28;20182;-51
2023/06/02 06:07:03;;;;;;;3.00;2.70;;;20.80;42.90;21.10;101262.00;;;;5011923;28;20186;-51
2023/06/02 06:09:29;;;;;;;3.10;2.50;;;20.80;42.90;21.10;101266.00;;;;5002606;28;20263;-50
2023/06/02 06:11:54;;;;;;;3.60;2.60;;;20.80;43.00;21.10;101274.00;;;;5010977;28;20177;-51
2023/06/02 06:14:20;;;;;;;3.43;2.40;;;20.80;43.10;21.10;101271.00;;;;5010861;28;20192;-50
2023/06/02 06:16:46;;;;;;;3.97;2.60;;;20.80;43.10;21.10;101268.00;;;;5010896;28;20182;-50
2023/06/02 06:19:12;;;;;;;2.73;2.40;;;20.80;43.20;21.10;101267.00;;;;5010588;28;20191;-49
2023/06/02 06:21:38;;;;;;;2.93;2.60;;;20.70;43.20;21.00;101265.00;;;;5010728;28;20174;-49
2023/06/02 06:24:06;;;;;;;3.50;2.70;;;20.70;43.20;21.00;101269.00;;;;5010514;28;20176;-49
2023/06/02 06:26:32;;;;;;;3.33;2.50;;;20.70;43.30;21.00;101266.00;;;;5010348;28;20670;-50
2023/06/02 06:28:58;;;;;;;2.93;2.50;;;20.70;43.40;21.00;101262.00;;;;5010264;28;20193;-51
2023/06/02 06:31:25;;;;;;;3.53;2.57;;;20.70;43.40;21.00;101272.00;;;;5010241;28;20223;-49
2023/06/02 06:33:51;;;;;;;4.07;2.50;;;20.70;43.50;21.00;101269.00;;;;5010181;28;20260;-50
2023/06/02 06:36:17;;;;;;;3.23;2.33;;;20.60;43.50;21.00;101273.00;;;;5010076;28;20164;-50
2023/06/02 06:38:43;;;;;;;2.93;2.57;;;20.60;43.60;21.00;101259.00;;;;5010294;28;20357;-49
2023/06/02 06:41:08;;;;;;;3.80;2.80;;;20.60;43.70;21.00;101263.00;;;;5009925;28;20203;-50
2023/06/02 06:43:34;;;;;;;2.63;2.17;;;20.60;43.80;21.00;101272.00;;;;5010442;28;20189;-49
2023/06/02 06:46:00;;;;;;;3.87;2.30;;;20.50;43.80;21.00;101271.00;;;;5010319;28;20168;-49
2023/06/02 06:48:26;;;;;;;3.33;2.23;;;20.50;43.90;21.00;101272.00;;;;5010393;28;20658;-49
2023/06/02 06:50:51;;;;;;;2.53;2.33;;;20.60;44.10;21.00;101265.00;;;;5009286;28;20214;-49
2023/06/02 06:53:18;;;;;;;2.73;2.20;;;20.50;44.00;21.00;101277.00;;;;5009086;28;20205;-50
2023/06/02 06:55:44;;;;;;;2.87;2.57;;;20.50;44.00;21.00;101262.00;;;;5010280;28;20177;-51
2023/06/02 06:58:10;;;;;;;3.47;2.40;;;20.50;44.00;21.00;101272.00;;;;5008477;28;20175;-50
2023/06/02 07:00:36;;;;;;;3.47;2.60;;;20.50;44.10;21.00;101277.00;;;;5010150;28;20195;-50
2023/06/02 07:03:01;;;;;;;2.77;2.57;;;20.40;44.80;21.00;101268.00;;;;5009669;28;20194;-49
2023/06/02 07:05:28;;;;;;;2.83;2.40;;;20.50;44.40;21.00;101274.00;;;;5009509;28;20203;-50
2023/06/02 07:07:54;;;;;;;3.87;2.80;;;20.40;44.30;21.00;101286.00;;;;5009906;28;20164;-49
2023/06/02 07:10:20;;;;;;;2.73;2.53;;;20.50;44.40;21.00;101274.00;;;;5008574;28;20214;-50
2023/06/02 07:12:46;;;;;;;3.00;2.70;;;20.40;44.50;21.10;101269.00;;;;5009704;28;20167;-50
2023/06/02 07:15:12;;;;;;;2.77;2.30;;;20.40;44.50;21.00;101195.00;;;;5009794;28;20181;-50
2023/06/02 07:17:42;;;;;;;2.70;2.30;;;20.40;44.60;21.10;101260.00;;;;5010060;28;20222;-50
2023/06/02 07:20:12;;;;;;;2.57;2.30;;;20.40;44.60;21.10;101277.00;;;;5008657;28;20195;-50
2023/06/02 07:22:37;;;;;;;2.73;2.33;;;20.40;44.60;21.10;101273.00;;;;5010403;28;20188;-50
2023/06/02 07:25:04;;;;;;;3.20;2.47;;;20.40;44.60;21.10;101274.00;;;;5009770;28;20556;-50
2023/06/02 07:27:31;;;;;;;3.40;2.40;;;20.40;44.60;21.10;101282.00;;;;5009904;28;20363;-51
2023/06/02 07:29:56;;;;;;;2.83;2.40;;;20.40;44.70;21.10;101278.00;;;;5014079;28;20218;-49
2023/06/02 07:32:22;;;;;;;2.73;2.30;;;20.40;44.80;21.10;101279.00;;;;5015439;28;20186;-51
2023/06/02 07:34:48;;;;;;;2.40;2.20;;;20.40;44.80;21.10;101270.00;;;;5013413;28;20711;-50
2023/06/02 07:37:14;;;;;;;2.40;2.20;;;20.40;44.80;20.80;101265.00;;;;5009407;28;20193;-50
2023/06/02 07:39:40;;;;;;;3.03;2.70;;;20.40;44.70;21.10;101259.00;;;;5009565;28;20199;-50
2023/06/02 07:42:06;;;;;;;3.03;2.40;;;20.40;44.80;21.10;101270.00;;;;5015300;28;20175;-49
2023/06/02 07:44:32;;;;;;;4.43;2.70;;;20.40;44.80;21.10;101278.00;;;;5013238;28;20176;-50
2023/06/02 07:46:57;;;;;;;3.67;2.60;;;20.40;44.90;21.10;101275.00;;;;5009471;28;20182;-49
2023/06/02 07:49:23;;;;;;;2.60;2.40;;;20.40;44.80;21.10;101270.00;;;;5009028;28;20247;-50
2023/06/02 07:51:49;;;;;;;3.63;2.60;;;20.40;44.90;21.10;101268.00;;;;5009551;28;20181;-50
2023/06/02 07:54:15;;;;;;;3.33;2.30;;;20.50;45.00;21.10;101260.00;;;;5009283;28;20249;-50
2023/06/02 07:56:40;;;;;;;2.60;2.40;;;20.40;44.90;21.10;101269.00;;;;5014182;28;20681;-50
2023/06/02 07:59:06;;;;;;;2.70;2.50;;;20.40;45.00;21.10;101264.00;;;;5010533;28;20222;-50
2023/06/02 08:01:32;;;;;;;2.50;2.30;;;20.40;45.00;21.10;101274.00;;;;5012109;28;20194;-50
2023/06/02 08:03:58;;;;;;;2.60;2.40;;;20.40;45.00;21.10;101270.00;;;;5013102;28;20753;-50
2023/06/02 08:06:24;;;;;;;2.80;2.50;;;20.40;45.00;21.10;101266.00;;;;5012996;28;20191;-50
2023/06/02 08:08:49;;;;;;;2.80;2.40;;;20.50;45.10;21.10;101271.00;;;;5012812;28;20605;-50
2023/06/02 08:11:15;;;;;;;2.57;2.37;;;20.40;45.00;21.10;101204.00;;;;5012595;28;20226;-50
2023/06/02 08:13:41;;;;;;;2.33;2.13;;;20.50;45.10;21.10;101271.00;;;;5012942;28;20292;-50
2023/06/02 08:16:06;;;;;;;3.27;2.27;;;20.40;45.00;21.10;101266.00;;;;5013020;28;20177;-50
2023/06/02 08:18:32;;;;;;;3.17;2.53;;;20.50;45.20;21.10;101272.00;;;;5012617;28;20242;-50
2023/06/02 08:20:58;;;;;;;3.30;2.60;;;20.50;45.10;21.10;101265.00;;;;5012601;28;20610;-50
2023/06/02 08:23:25;;;;;;;3.07;2.27;;;20.50;45.10;21.10;101269.00;;;;5012654;28;20189;-50
2023/06/02 08:25:53;;;;;;;3.57;2.40;;;20.50;45.20;21.10;101259.00;;;;5012716;28;20180;-50
2023/06/02 08:28:24;;;;;;;2.50;2.27;;;20.50;45.10;21.20;101262.00;;;;5012744;28;20199;-50
2023/06/02 08:30:51;;;;;;;2.90;2.53;;;20.50;45.10;21.20;101266.00;;;;5014781;28;20239;-50
2023/06/02 08:33:17;;;;;;;3.20;2.57;;;20.50;45.20;21.20;101259.00;;;;5013245;28;20654;-50
2023/06/02 08:35:43;;;;;;;3.77;2.50;;;20.50;45.10;21.20;101258.00;;;;5012881;28;20653;-50
2023/06/02 08:38:09;;;;;;;3.47;2.53;;;20.50;45.10;21.20;101234.00;;;;5012843;28;20169;-50
2023/06/02 08:40:37;;;;;;;4.27;2.63;;;20.50;45.10;21.20;101251.00;;;;5011186;28;20200;-50
2023/06/02 08:43:05;;;;;;;2.50;2.30;;;20.50;45.20;21.20;101256.00;;;;5011413;28;20182;-50
2023/06/02 08:45:31;;;;;;;2.67;2.30;;;20.50;45.20;21.20;101260.00;;;;5012598;28;20169;-50
2023/06/02 08:47:57;;;;;;;2.83;2.43;;;20.50;45.20;21.20;101266.00;;;;5012248;28;20202;-50
2023/06/02 08:50:31;;;;;;;3.40;2.80;;;20.60;45.30;21.20;101245.00;;;;5011899;28;20245;-50
2023/06/02 08:52:58;;;;;;;3.43;2.80;;;20.60;45.40;21.20;101263.00;;;;5010984;28;20233;-50
2023/06/02 08:55:24;;;;;;;3.03;2.60;;;20.60;45.30;21.20;101253.00;;;;5010725;28;20182;-50
2023/06/02 08:57:51;;;;;;;2.87;2.43;;;20.60;45.20;21.30;101267.00;;;;5010857;28;20172;-50
2023/06/02 09:00:18;;;;;;;2.53;2.33;;;20.60;45.20;21.30;101266.00;;;;5011159;28;20196;-50
2023/06/02 09:02:47;;;;;;;2.90;2.40;;;20.60;45.30;21.30;101275.00;;;;5012600;28;20278;-50
2023/06/02 09:05:16;;;;;;;2.83;2.40;;;20.70;45.30;21.30;101254.00;;;;5010777;28;20253;-49
2023/06/02 09:07:44;;;;;;;2.73;2.53;;;20.70;45.30;21.30;101260.00;;;;5012212;28;20726;-49
2023/06/02 09:10:10;;;;;;;2.77;2.47;;;20.70;45.30;21.30;101260.00;;;;5011845;28;20209;-49
2023/06/02 09:12:47;;;;;;;3.20;2.40;;;20.70;45.40;21.30;101261.00;;;;5010802;28;20553;-49
2023/06/02 09:15:14;;;;;;;2.70;2.50;;;20.70;45.30;21.30;101253.00;;;;5011559;28;20174;-49
2023/06/02 09:17:39;;;;;;;3.03;2.50;;;20.70;45.40;21.30;101250.00;;;;5011352;28;20192;-49
2023/06/02 09:20:10;;;;;;;3.53;2.50;;;20.70;45.50;21.30;101253.00;;;;5011534;28;20692;-49
2023/06/02 09:22:52;;;;;;;3.00;2.40;;;20.70;45.50;21.30;101253.00;;;;5011691;28;20172;-49
2023/06/02 09:25:26;;;;;;;3.60;2.60;;;20.70;45.60;21.30;101259.00;;;;5011285;28;20177;-49
2023/06/02 09:27:53;;;;;;;2.77;2.30;;;20.70;45.70;21.40;101259.00;;;;5011133;28;20175;-49
2023/06/02 09:30:19;;;;;;;2.83;2.60;;;20.70;45.80;21.40;101256.00;;;;5010351;28;20212;-49
2023/06/02 09:32:58;;;;;;;2.57;2.30;;;20.70;45.80;21.40;101267.00;;;;5011523;28;20552;-49
2023/06/02 09:35:39;;;;;;;2.77;2.50;;;20.70;45.90;21.30;101245.00;;;;5011503;28;20262;-49
2023/06/02 09:38:07;;;;;;;2.67;2.40;;;20.70;45.80;21.40;101254.00;;;;5011758;28;20179;-49
2023/06/02 09:40:34;;;;;;;2.60;2.40;;;20.70;45.70;21.40;101269.00;;;;5017429;28;20669;-49
2023/06/02 09:43:10;;;;;;;2.50;2.30;;;20.70;45.90;21.40;101254.00;;;;5012932;28;20177;-50
2023/06/02 09:45:48;;;;;;;3.37;2.43;;;20.70;45.80;21.40;101250.00;;;;5010550;28;20164;-50
2023/06/02 09:48:22;;;;;;;3.07;2.37;;;20.70;46.10;21.40;101195.00;;;;5010808;28;20215;-50
2023/06/02 09:50:48;;;;;;;3.03;2.43;;;20.70;46.20;21.40;101262.00;;;;5010815;28;20200;-50
2023/06/02 09:53:15;;;;;;;3.23;2.20;;;20.80;46.50;21.50;101256.00;;;;5014055;28;20410;-50
2023/06/02 09:55:41;;;;;;;2.97;2.50;;;20.70;46.60;21.50;101259.00;;;;5018282;28;20233;-50
2023/06/02 09:58:07;;;;;;;2.70;2.50;;;20.70;46.50;21.50;101260.00;;;;5010803;28;20646;-50
2023/06/02 10:00:35;;;;;;;4.63;2.57;;;20.80;46.60;21.50;101249.00;;;;5009612;28;20199;-49
2023/06/02 10:03:01;;;;;;;2.57;2.37;;;20.80;46.60;21.50;101251.00;;;;5010816;28;20742;-50
2023/06/02 10:05:28;;;;;;;3.23;2.50;;;20.80;46.40;21.50;101256.00;;;;5009413;28;20173;-50
2023/06/02 10:08:25;;;;;;;2.90;2.60;;;20.80;46.40;21.60;101244.00;;;;4993187;28;20639;-50
2023/06/02 10:11:19;;;;;;;2.70;2.37;;;20.80;46.60;21.60;101252.00;;;;5010862;28;20704;-50
2023/06/02 10:14:35;;;;;;;2.70;2.40;;;20.80;46.70;21.60;101240.00;;;;5009815;28;20550;-50
2023/06/02 10:17:38;;;;;;;3.27;2.50;;;20.80;46.70;21.60;101243.00;;;;5011120;28;20218;-50
2023/06/02 10:20:24;;;;;;;3.17;2.50;;;20.80;46.70;21.60;101245.00;;;;5010866;28;20222;-50
2023/06/02 10:23:04;;;;;;;3.00;2.60;;;20.80;46.70;21.60;101233.00;;;;5009387;28;20631;-50
2023/06/02 10:25:53;;;;;;;2.90;2.30;;;20.80;46.80;21.60;101235.00;;;;5002915;28;20640;-50
2023/06/02 10:28:20;;;;;;;2.60;2.40;;;20.80;46.90;21.60;101218.00;;;;5009717;28;20527;-50
2023/06/02 10:30:45;;;;;;;2.57;2.37;;;20.80;47.00;21.60;101236.00;;;;5009372;28;20188;-50
2023/06/02 10:33:11;;;;;;;3.30;2.60;;;20.80;47.00;21.70;101176.00;;;;5009503;28;20182;-50
2023/06/02 10:35:59;;;;;;;4.77;2.40;;;20.80;47.00;21.70;101226.00;;;;5009055;28;20177;-50
2023/06/02 10:38:27;;;;;;;3.10;2.40;;;20.90;47.10;21.70;101230.00;;;;5010186;28;20625;-50
2023/06/02 10:40:54;;;;;;;3.00;2.53;;;20.90;47.20;21.70;101232.00;;;;5010539;28;20191;-50
2023/06/02 10:43:20;;;;;;;2.67;2.47;;;20.90;47.20;21.70;101223.00;;;;5010439;28;20184;-50
2023/06/02 10:45:46;;;;;;;3.33;2.70;;;20.90;47.30;21.80;101202.00;;;;5010248;28;20169;-50
2023/06/02 10:48:38;;;;;;;2.75;2.40;;;20.90;47.40;21.80;101223.00;;;;5009170;28;20178;-50